createdAt,value
2023-04-18T00:00:41.760Z,6.97
2023-04-18T00:01:42.168Z,6.96
2023-04-18T00:02:42.526Z,6.95
2023-04-18T00:03:43.085Z,6.93
2023-04-18T00:04:43.222Z,6.93
2023-04-18T00:05:43.522Z,6.89
2023-04-18T00:06:43.924Z,6.87
2023-04-18T00:07:44.212Z,6.88
2023-04-18T00:08:44.587Z,6.92
2023-04-18T00:09:45.059Z,6.89
2023-04-18T00:10:45.307Z,6.88
2023-04-18T00:11:45.650Z,6.87
2023-04-18T00:12:46.030Z,6.85
2023-04-18T00:13:46.376Z,6.85
2023-04-18T00:14:46.719Z,6.85
2023-04-18T00:15:47.123Z,6.84
2023-04-18T00:16:47.529Z,6.84
2023-04-18T00:17:47.822Z,6.84
2023-04-18T00:18:48.149Z,6.82
2023-04-18T00:19:48.722Z,6.82
2023-04-18T00:20:48.848Z,6.78
2023-04-18T00:21:49.193Z,6.77
2023-04-18T00:22:49.556Z,6.77
2023-04-18T00:23:49.901Z,6.79
2023-04-18T00:24:50.247Z,6.78
2023-04-18T00:25:50.634Z,6.79
2023-04-18T00:26:50.951Z,6.81
2023-04-18T00:27:51.314Z,6.77
2023-04-18T00:28:51.653Z,6.75
2023-04-18T00:29:52.000Z,6.77
2023-04-18T00:30:52.376Z,6.78
2023-04-18T00:31:52.689Z,6.79
2023-04-18T00:32:53.068Z,6.78
2023-04-18T00:33:53.372Z,6.75
2023-04-18T00:34:53.714Z,6.74
2023-04-18T00:35:54.080Z,6.69
2023-04-18T00:36:54.419Z,6.66
2023-04-18T00:37:54.784Z,6.63
2023-04-18T00:38:55.098Z,6.62
2023-04-18T00:39:55.466Z,6.62
2023-04-18T00:40:55.835Z,6.59
2023-04-18T00:41:56.160Z,6.57
2023-04-18T00:42:56.505Z,6.57
2023-04-18T00:43:56.861Z,6.57
2023-04-18T00:44:57.224Z,6.57
2023-04-18T00:45:57.558Z,6.56
2023-04-18T00:46:57.913Z,6.52
2023-04-18T00:47:58.338Z,6.52
2023-04-18T00:48:58.612Z,6.49
2023-04-18T00:49:58.944Z,6.51
2023-04-18T00:50:59.340Z,6.49
2023-04-18T00:51:59.640Z,6.48
2023-04-18T00:52:59.993Z,6.46
2023-04-18T00:54:00.349Z,6.46
2023-04-18T00:55:00.704Z,6.45
2023-04-18T00:56:01.092Z,6.45
2023-04-18T00:57:01.388Z,6.42
2023-04-18T00:58:01.730Z,6.44
2023-04-18T00:59:02.095Z,6.42
2023-04-18T01:00:02.462Z,6.44
2023-04-18T01:01:02.937Z,6.42
2023-04-18T01:02:03.230Z,6.41
2023-04-18T01:03:03.716Z,6.39
2023-04-18T01:04:03.900Z,6.36
2023-04-18T01:05:04.195Z,6.33
2023-04-18T01:06:04.546Z,6.31
2023-04-18T01:07:04.897Z,6.30
2023-04-18T01:08:05.232Z,6.26
2023-04-18T01:09:05.609Z,6.26
2023-04-18T01:10:05.939Z,6.22
2023-04-18T01:11:06.309Z,6.20
2023-04-18T01:12:06.642Z,6.19
2023-04-18T01:13:06.981Z,6.16
2023-04-18T01:14:07.328Z,6.14
2023-04-18T01:15:07.755Z,6.14
2023-04-18T01:16:08.093Z,6.14
2023-04-18T01:17:08.378Z,6.12
2023-04-18T01:18:08.745Z,6.12
2023-04-18T01:19:09.091Z,6.09
2023-04-18T01:20:09.434Z,6.08
2023-04-18T01:21:09.802Z,6.05
2023-04-18T01:22:10.136Z,6.07
2023-04-18T01:23:10.570Z,6.05
2023-04-18T01:24:10.980Z,6.02
2023-04-18T01:25:11.181Z,5.99
2023-04-18T01:26:11.572Z,5.98
2023-04-18T01:27:11.908Z,5.97
2023-04-18T01:28:12.255Z,5.97
2023-04-18T01:29:12.678Z,5.98
2023-04-18T01:30:12.936Z,5.98
2023-04-18T01:31:13.339Z,5.94
2023-04-18T01:32:13.631Z,5.94
2023-04-18T01:33:13.962Z,5.94
2023-04-18T01:34:14.552Z,5.93
2023-04-18T01:35:14.632Z,5.91
2023-04-18T01:36:14.999Z,5.90
2023-04-18T01:37:15.354Z,5.89
2023-04-18T01:38:15.692Z,5.93
2023-04-18T01:39:16.028Z,5.93
2023-04-18T01:40:16.374Z,5.90
2023-04-18T01:41:16.735Z,5.84
2023-04-18T01:42:17.090Z,5.83
2023-04-18T01:43:17.438Z,5.80
2023-04-18T01:44:17.786Z,5.80
2023-04-18T01:45:18.113Z,5.80
2023-04-18T01:46:18.521Z,5.76
2023-04-18T01:47:18.847Z,5.75
2023-04-18T01:48:19.183Z,5.72
2023-04-18T01:49:19.517Z,5.71
2023-04-18T01:50:19.854Z,5.73
2023-04-18T01:51:20.261Z,5.72
2023-04-18T01:52:20.572Z,5.69
2023-04-18T01:53:20.898Z,5.72
2023-04-18T01:54:21.260Z,5.73
2023-04-18T01:55:21.595Z,5.75
2023-04-18T01:56:21.959Z,5.76
2023-04-18T01:57:22.297Z,5.73
2023-04-18T01:58:22.638Z,5.75
2023-04-18T01:59:22.997Z,5.76
2023-04-18T02:00:23.321Z,5.76
2023-04-18T02:01:23.708Z,5.76
2023-04-18T02:02:24.111Z,5.80
2023-04-18T02:03:24.655Z,5.82
2023-04-18T02:04:24.711Z,5.83
2023-04-18T02:05:25.059Z,5.84
2023-04-18T02:06:25.418Z,5.86
2023-04-18T02:07:25.758Z,5.86
2023-04-18T02:08:26.109Z,5.87
2023-04-18T02:09:26.484Z,5.93
2023-04-18T02:10:26.796Z,5.94
2023-04-18T02:11:27.177Z,5.93
2023-04-18T02:12:27.505Z,5.94
2023-04-18T02:13:27.848Z,5.93
2023-04-18T02:14:28.183Z,5.93
2023-04-18T02:15:28.526Z,5.91
2023-04-18T02:16:28.899Z,5.93
2023-04-18T02:17:29.288Z,5.93
2023-04-18T02:18:29.623Z,5.98
2023-04-18T02:19:29.950Z,5.98
2023-04-18T02:20:30.296Z,5.99
2023-04-18T02:21:30.666Z,5.99
2023-04-18T02:22:30.982Z,6.02
2023-04-18T02:23:31.326Z,6.02
2023-04-18T02:24:31.668Z,6.04
2023-04-18T02:25:32.007Z,6.01
2023-04-18T02:26:32.363Z,5.99
2023-04-18T02:27:32.724Z,5.98
2023-04-18T02:28:33.064Z,5.97
2023-04-18T02:29:33.395Z,5.93
2023-04-18T02:30:33.743Z,5.93
2023-04-18T02:31:34.148Z,5.91
2023-04-18T02:32:34.467Z,5.91
2023-04-18T02:33:34.787Z,5.87
2023-04-18T02:34:35.122Z,5.87
2023-04-18T02:35:35.471Z,5.84
2023-04-18T02:36:35.830Z,5.86
2023-04-18T02:37:36.165Z,5.83
2023-04-18T02:38:36.517Z,5.83
2023-04-18T02:39:36.888Z,5.82
2023-04-18T02:40:37.223Z,5.82
2023-04-18T02:41:37.633Z,5.80
2023-04-18T02:42:37.899Z,5.79
2023-04-18T02:43:38.254Z,5.80
2023-04-18T02:44:38.586Z,5.79
2023-04-18T02:45:38.952Z,5.79
2023-04-18T02:46:39.281Z,5.76
2023-04-18T02:47:51.321Z,5.72
2023-04-18T02:48:39.977Z,5.68
2023-04-18T02:49:40.337Z,5.69
2023-04-18T02:50:40.657Z,5.66
2023-04-18T02:51:41.082Z,5.64
2023-04-18T02:52:42.235Z,5.61
2023-04-18T02:53:48.339Z,5.57
2023-04-18T02:54:42.045Z,5.62
2023-04-18T02:55:42.389Z,5.61
2023-04-18T02:56:44.330Z,5.59
2023-04-18T02:57:43.074Z,5.59
2023-04-18T02:58:43.428Z,5.57
2023-04-18T02:59:43.771Z,5.53
2023-04-18T03:00:44.105Z,5.51
2023-04-18T03:01:44.611Z,5.47
2023-04-18T03:02:44.931Z,5.46
2023-04-18T03:03:45.150Z,5.39
2023-04-18T03:04:45.514Z,5.38
2023-04-18T03:05:45.849Z,5.35
2023-04-18T03:06:46.200Z,5.33
2023-04-18T03:07:46.544Z,5.32
2023-04-18T03:08:46.900Z,5.32
2023-04-18T03:09:47.241Z,5.33
2023-04-18T03:10:47.596Z,5.33
2023-04-18T03:11:47.958Z,5.33
2023-04-18T03:12:48.297Z,5.35
2023-04-18T03:13:48.640Z,5.36
2023-04-18T03:14:48.984Z,5.36
2023-04-18T03:15:49.369Z,5.38
2023-04-18T03:16:50.221Z,5.35
2023-04-18T03:17:50.074Z,5.39
2023-04-18T03:18:50.542Z,5.39
2023-04-18T03:19:50.730Z,5.39
2023-04-18T03:20:51.076Z,5.41
2023-04-18T03:21:51.477Z,5.39
2023-04-18T03:22:51.770Z,5.39
2023-04-18T03:23:52.117Z,5.39
2023-04-18T03:24:52.448Z,5.38
2023-04-18T03:25:52.813Z,5.39
2023-04-18T03:26:53.217Z,5.41
2023-04-18T03:27:53.484Z,5.44
2023-04-18T03:28:53.827Z,5.44
2023-04-18T03:29:54.173Z,5.41
2023-04-18T03:30:54.549Z,5.43
2023-04-18T03:31:54.876Z,5.43
2023-04-18T03:32:55.260Z,5.44
2023-04-18T03:33:55.607Z,5.46
2023-04-18T03:34:55.971Z,5.48
2023-04-18T03:35:56.338Z,5.46
2023-04-18T03:36:56.692Z,5.46
2023-04-18T03:37:56.960Z,5.46
2023-04-18T03:38:57.201Z,5.47
2023-04-18T03:39:57.484Z,5.44
2023-04-18T03:40:57.775Z,5.43
2023-04-18T03:41:58.088Z,5.41
2023-04-18T03:42:58.481Z,5.43
2023-04-18T03:43:58.696Z,5.39
2023-04-18T03:44:58.988Z,5.38
2023-04-18T03:45:59.292Z,5.36
2023-04-18T03:46:59.590Z,5.35
2023-04-18T03:47:59.875Z,5.33
2023-04-18T03:49:00.130Z,5.29
2023-04-18T03:50:00.424Z,5.28
2023-04-18T03:51:00.703Z,5.30
2023-04-18T03:52:01.062Z,5.29
2023-04-18T03:53:01.306Z,5.26
2023-04-18T03:54:01.581Z,5.25
2023-04-18T03:55:01.911Z,5.21
2023-04-18T03:56:02.228Z,5.20
2023-04-18T03:57:02.478Z,5.20
2023-04-18T03:58:02.758Z,5.18
2023-04-18T03:59:03.034Z,5.17
2023-04-18T04:00:03.345Z,5.15
2023-04-18T04:01:03.508Z,5.14
2023-04-18T04:02:03.983Z,5.12
2023-04-18T04:03:04.230Z,5.11
2023-04-18T04:04:04.338Z,5.11
2023-04-18T04:05:04.686Z,5.14
2023-04-18T04:06:04.829Z,5.11
2023-04-18T04:07:05.039Z,5.08
2023-04-18T04:08:05.295Z,5.04
2023-04-18T04:09:05.564Z,5.04
2023-04-18T04:10:05.860Z,5.02
2023-04-18T04:11:06.031Z,4.99
2023-04-18T04:12:06.208Z,4.96
2023-04-18T04:13:06.357Z,4.93
2023-04-18T04:14:06.663Z,4.90
2023-04-18T04:15:06.955Z,4.86
2023-04-18T04:16:07.156Z,4.78
2023-04-18T04:17:07.323Z,4.75
2023-04-18T04:18:07.530Z,4.73
2023-04-18T04:19:07.650Z,4.70
2023-04-18T04:20:07.823Z,4.68
2023-04-18T04:21:07.992Z,4.66
2023-04-18T04:22:08.186Z,4.66
2023-04-18T04:23:08.357Z,4.63
2023-04-18T04:24:08.528Z,4.62
2023-04-18T04:25:08.705Z,4.60
2023-04-18T04:26:08.893Z,4.60
2023-04-18T04:27:09.065Z,4.62
2023-04-18T04:28:09.236Z,4.60
2023-04-18T04:29:09.405Z,4.63
2023-04-18T04:30:11.855Z,4.66
2023-04-18T04:31:09.867Z,4.68
2023-04-18T04:32:10.129Z,4.68
2023-04-18T04:33:10.213Z,4.71
2023-04-18T04:34:10.403Z,4.75
2023-04-18T04:35:10.558Z,4.82
2023-04-18T04:36:10.732Z,4.89
2023-04-18T04:37:10.917Z,4.90
2023-04-18T04:38:11.197Z,4.94
2023-04-18T04:39:11.478Z,4.99
2023-04-18T04:40:11.640Z,4.99
2023-04-18T04:41:11.836Z,4.99
2023-04-18T04:42:12.001Z,5.04
2023-04-18T04:43:12.164Z,5.07
2023-04-18T04:44:12.582Z,5.12
2023-04-18T04:45:12.653Z,5.11
2023-04-18T04:46:12.998Z,5.14
2023-04-18T04:47:13.096Z,5.15
2023-04-18T04:48:13.371Z,5.25
2023-04-18T04:49:13.562Z,5.29
2023-04-18T04:50:13.718Z,5.30
2023-04-18T04:51:14.048Z,5.29
2023-04-18T04:52:14.233Z,5.29
2023-04-18T04:53:14.363Z,5.33
2023-04-18T04:54:14.748Z,5.41
2023-04-18T04:55:14.745Z,5.44
2023-04-18T04:56:15.029Z,5.35
2023-04-18T04:57:15.223Z,5.38
2023-04-18T04:58:15.385Z,5.39
2023-04-18T04:59:15.588Z,5.46
2023-04-18T05:00:15.863Z,5.44
2023-04-18T05:01:16.075Z,5.44
2023-04-18T05:02:16.306Z,5.43
2023-04-18T05:03:16.634Z,5.43
2023-04-18T05:04:16.997Z,5.46
2023-04-18T05:05:17.110Z,5.44
2023-04-18T05:06:17.292Z,5.46
2023-04-18T05:07:17.502Z,5.50
2023-04-18T05:08:17.645Z,5.57
2023-04-18T05:09:17.936Z,5.62
2023-04-18T05:10:18.229Z,5.73
2023-04-18T05:11:18.526Z,5.71
2023-04-18T05:12:18.838Z,5.66
2023-04-18T05:13:19.013Z,5.71
2023-04-18T05:14:19.191Z,5.82
2023-04-18T05:15:19.362Z,5.83
2023-04-18T05:16:19.715Z,5.79
2023-04-18T05:17:19.987Z,5.76
2023-04-18T05:18:20.263Z,5.75
2023-04-18T05:19:20.560Z,5.79
2023-04-18T05:20:20.866Z,5.80
2023-04-18T05:21:21.060Z,5.83
2023-04-18T05:22:21.263Z,5.87
2023-04-18T05:23:21.541Z,5.97
2023-04-18T05:24:21.842Z,6.05
2023-04-18T05:25:22.150Z,6.20
2023-04-18T05:26:22.341Z,6.12
2023-04-18T05:27:22.643Z,6.14
2023-04-18T05:28:22.808Z,6.09
2023-04-18T05:29:23.100Z,6.14
2023-04-18T05:30:23.408Z,6.17
2023-04-18T05:31:23.659Z,6.24
2023-04-18T05:32:23.935Z,6.24
2023-04-18T05:33:24.198Z,6.19
2023-04-18T05:34:24.514Z,6.14
2023-04-18T05:35:24.804Z,6.19
2023-04-18T05:36:24.985Z,6.30
2023-04-18T05:37:25.203Z,6.31
2023-04-18T05:38:25.351Z,6.31
2023-04-18T05:39:25.519Z,6.31
2023-04-18T05:40:25.698Z,6.27
2023-04-18T05:41:25.896Z,6.30
2023-04-18T05:42:26.079Z,6.33
2023-04-18T05:43:26.243Z,6.38
2023-04-18T05:44:26.419Z,6.45
2023-04-18T05:45:26.596Z,6.33
2023-04-18T05:46:26.813Z,6.42
2023-04-18T05:47:27.145Z,6.31
2023-04-18T05:48:27.356Z,6.22
2023-04-18T05:49:27.656Z,6.20
2023-04-18T05:50:27.964Z,6.22
2023-04-18T05:51:28.149Z,6.08
2023-04-18T05:52:28.475Z,6.11
2023-04-18T05:53:28.749Z,6.12
2023-04-18T05:54:29.047Z,6.12
2023-04-18T05:55:29.352Z,6.20
2023-04-18T05:56:29.533Z,6.35
2023-04-18T05:57:29.734Z,6.56
2023-04-18T05:58:29.992Z,6.77
2023-04-18T05:59:30.167Z,6.77
2023-04-18T06:00:30.471Z,6.63
2023-04-18T06:01:30.768Z,6.63
2023-04-18T06:02:31.065Z,6.66
2023-04-18T06:03:31.447Z,6.70
2023-04-18T06:04:31.689Z,6.66
2023-04-18T06:05:32.123Z,6.70
2023-04-18T06:06:31.915Z,6.77
2023-04-18T06:07:32.234Z,6.75
2023-04-18T06:08:32.410Z,6.77
2023-04-18T06:09:32.574Z,6.75
2023-04-18T06:10:32.876Z,6.70
2023-04-18T06:11:33.216Z,6.70
2023-04-18T06:12:33.395Z,6.70
2023-04-18T06:13:33.554Z,6.70
2023-04-18T06:14:33.853Z,6.70
2023-04-18T06:15:34.153Z,6.79
2023-04-18T06:16:34.562Z,6.78
2023-04-18T06:17:34.683Z,6.82
2023-04-18T06:18:34.816Z,6.84
2023-04-18T06:19:34.987Z,6.84
2023-04-18T06:20:35.325Z,6.89
2023-04-18T06:21:35.464Z,6.89
2023-04-18T06:22:35.831Z,6.95
2023-04-18T06:23:35.955Z,6.95
2023-04-18T06:24:36.261Z,7.07
2023-04-18T06:25:36.426Z,7.10
2023-04-18T06:26:36.746Z,7.18
2023-04-18T06:27:36.940Z,7.17
2023-04-18T06:28:37.104Z,7.17
2023-04-18T06:29:38.045Z,7.21
2023-04-18T06:30:37.722Z,7.28
2023-04-18T06:31:37.888Z,7.39
2023-04-18T06:32:38.291Z,7.45
2023-04-18T06:33:38.486Z,7.47
2023-04-18T06:34:38.667Z,7.50
2023-04-18T06:35:38.829Z,7.45
2023-04-18T06:36:38.994Z,7.48
2023-04-18T06:37:39.329Z,7.39
2023-04-18T06:38:39.502Z,7.45
2023-04-18T06:39:39.793Z,7.51
2023-04-18T06:40:39.976Z,7.57
2023-04-18T06:41:40.259Z,7.58
2023-04-18T06:42:40.582Z,7.61
2023-04-18T06:43:46.576Z,7.73
2023-04-18T06:44:40.932Z,7.85
2023-04-18T06:45:41.292Z,7.77
2023-04-18T06:46:41.539Z,7.80
2023-04-18T06:47:41.788Z,7.88
2023-04-18T06:48:41.903Z,7.79
2023-04-18T06:49:42.224Z,7.90
2023-04-18T06:50:42.399Z,7.95
2023-04-18T06:51:42.571Z,8.06
2023-04-18T06:52:42.893Z,7.87
2023-04-18T06:53:43.061Z,7.91
2023-04-18T06:54:43.237Z,8.01
2023-04-18T06:55:43.428Z,8.00
2023-04-18T06:56:43.593Z,8.10
2023-04-18T06:57:43.959Z,8.28
2023-04-18T06:58:44.191Z,8.28
2023-04-18T06:59:44.487Z,8.20
2023-04-18T07:00:44.822Z,8.31
2023-04-18T07:01:44.978Z,8.31
2023-04-18T07:02:45.335Z,8.26
2023-04-18T07:03:45.570Z,8.38
2023-04-18T07:04:45.784Z,8.49
2023-04-18T07:05:45.945Z,8.58
2023-04-18T07:06:46.118Z,8.46
2023-04-18T07:07:46.436Z,8.46
2023-04-18T07:08:46.611Z,8.41
2023-04-18T07:09:46.783Z,8.42
2023-04-18T07:10:47.081Z,8.33
2023-04-18T07:11:47.376Z,8.30
2023-04-18T07:12:47.647Z,8.36
2023-04-18T07:13:47.758Z,8.41
2023-04-18T07:14:48.068Z,8.41
2023-04-18T07:15:48.360Z,8.46
2023-04-18T07:16:48.723Z,8.36
2023-04-18T07:17:49.022Z,8.42
2023-04-18T07:18:49.168Z,8.48
2023-04-18T07:19:49.473Z,8.53
2023-04-18T07:20:49.756Z,8.66
2023-04-18T07:21:49.940Z,8.81
2023-04-18T07:22:50.128Z,8.61
2023-04-18T07:23:50.293Z,8.61
2023-04-18T07:24:50.607Z,8.58
2023-04-18T07:25:50.781Z,8.67
2023-04-18T07:26:52.527Z,8.56
2023-04-18T07:27:51.288Z,8.52
2023-04-18T07:28:51.447Z,8.61
2023-04-18T07:29:51.742Z,8.66
2023-04-18T07:30:52.073Z,8.71
2023-04-18T07:31:52.208Z,8.82
2023-04-18T07:32:52.423Z,8.82
2023-04-18T07:33:52.576Z,8.85
2023-04-18T07:34:52.763Z,8.91
2023-04-18T07:35:53.163Z,9.08
2023-04-18T07:36:53.224Z,9.03
2023-04-18T07:37:53.533Z,8.94
2023-04-18T07:38:53.700Z,8.95
2023-04-18T07:39:53.894Z,9.00
2023-04-18T07:40:54.072Z,9.02
2023-04-18T07:41:54.373Z,9.02
2023-04-18T07:42:54.690Z,9.04
2023-04-18T07:43:54.853Z,9.02
2023-04-18T07:44:55.151Z,8.94
2023-04-18T07:45:55.367Z,9.16
2023-04-18T07:46:55.525Z,9.19
2023-04-18T07:47:55.729Z,9.23
2023-04-18T07:48:55.891Z,9.39
2023-04-18T07:49:56.068Z,9.43
2023-04-18T07:50:56.238Z,9.36
2023-04-18T07:51:56.537Z,9.31
2023-04-18T07:52:56.857Z,9.23
2023-04-18T07:53:57.024Z,9.10
2023-04-18T07:54:57.211Z,9.11
2023-04-18T07:55:57.412Z,9.11
2023-04-18T07:56:57.579Z,9.22
2023-04-18T07:57:57.898Z,9.44
2023-04-18T07:58:58.179Z,9.32
2023-04-18T07:59:58.476Z,9.32
2023-04-18T08:00:58.762Z,9.46
2023-04-18T08:01:59.086Z,9.44
2023-04-18T08:02:59.420Z,9.25
2023-04-18T08:03:59.611Z,9.14
2023-04-18T08:04:59.834Z,9.10
2023-04-18T08:05:59.895Z,9.26
2023-04-18T08:07:00.208Z,9.39
2023-04-18T08:08:00.411Z,9.36
2023-04-18T08:09:00.585Z,9.16
2023-04-18T08:10:00.750Z,9.16
2023-04-18T08:11:01.053Z,8.97
2023-04-18T08:12:01.231Z,8.84
2023-04-18T08:13:01.549Z,8.91
2023-04-18T08:14:01.859Z,9.11
2023-04-18T08:15:02.019Z,9.21
2023-04-18T08:16:02.186Z,9.22
2023-04-18T08:17:02.356Z,9.21
2023-04-18T08:18:02.577Z,9.02
2023-04-18T08:19:02.824Z,9.08
2023-04-18T08:20:03.131Z,9.10
2023-04-18T08:21:03.375Z,9.26
2023-04-18T08:22:03.499Z,9.22
2023-04-18T08:23:07.894Z,9.32
2023-04-18T08:24:03.971Z,9.40
2023-04-18T08:25:05.704Z,9.50
2023-04-18T08:26:04.567Z,9.58
2023-04-18T08:27:04.770Z,9.50
2023-04-18T08:28:05.052Z,9.18
2023-04-18T08:29:05.223Z,9.21
2023-04-18T08:30:05.389Z,9.34
2023-04-18T08:31:05.689Z,9.61
2023-04-18T08:32:06.057Z,9.54
2023-04-18T08:33:06.215Z,9.48
2023-04-18T08:34:06.360Z,9.62
2023-04-18T08:35:06.657Z,9.56
2023-04-18T08:36:06.960Z,9.50
2023-04-18T08:37:07.321Z,9.47
2023-04-18T08:38:07.474Z,9.64
2023-04-18T08:39:07.649Z,9.68
2023-04-18T08:40:07.846Z,9.64
2023-04-18T08:41:08.010Z,9.51
2023-04-18T08:42:08.175Z,9.74
2023-04-18T08:43:08.490Z,9.84
2023-04-18T08:44:08.664Z,9.99
2023-04-18T08:45:08.844Z,9.98
2023-04-18T08:46:09.070Z,9.94
2023-04-18T08:47:09.204Z,9.98
2023-04-18T08:48:09.467Z,9.98
2023-04-18T08:49:10.736Z,10.09
2023-04-18T08:50:09.747Z,10.20
2023-04-18T08:51:09.914Z,10.07
2023-04-18T08:52:10.105Z,9.80
2023-04-18T08:53:10.317Z,9.91
2023-04-18T08:54:10.443Z,10.04
2023-04-18T08:55:10.640Z,10.12
2023-04-18T08:56:10.830Z,9.86
2023-04-18T08:57:11.116Z,9.94
2023-04-18T08:58:11.318Z,10.04
2023-04-18T08:59:11.661Z,10.28
2023-04-18T09:00:11.687Z,10.41
2023-04-18T09:01:11.878Z,10.63
2023-04-18T09:02:12.081Z,10.67
2023-04-18T09:03:12.284Z,10.84
2023-04-18T09:04:12.451Z,10.78
2023-04-18T09:05:12.597Z,10.93
2023-04-18T09:06:12.765Z,10.72
2023-04-18T09:07:12.946Z,10.71
2023-04-18T09:08:13.149Z,10.41
2023-04-18T09:09:13.559Z,10.44
2023-04-18T09:10:13.502Z,10.44
2023-04-18T09:11:13.675Z,10.37
2023-04-18T09:12:13.864Z,10.26
2023-04-18T09:13:14.094Z,10.38
2023-04-18T09:14:14.403Z,10.40
2023-04-18T09:15:14.429Z,10.46
2023-04-18T09:16:14.613Z,10.49
2023-04-18T09:17:14.749Z,10.59
2023-04-18T09:18:14.942Z,10.57
2023-04-18T09:19:15.517Z,10.44
2023-04-18T09:20:15.283Z,10.46
2023-04-18T09:21:15.477Z,10.41
2023-04-18T09:22:15.671Z,10.31
2023-04-18T09:23:15.899Z,10.19
2023-04-18T09:24:16.061Z,10.23
2023-04-18T09:25:16.255Z,10.16
2023-04-18T09:26:16.450Z,10.16
2023-04-18T09:27:16.644Z,10.25
2023-04-18T09:28:16.855Z,10.35
2023-04-18T09:29:17.010Z,10.30
2023-04-18T09:30:17.193Z,10.34
2023-04-18T09:31:17.410Z,10.34
2023-04-18T09:32:17.567Z,10.35
2023-04-18T09:33:17.788Z,10.49
2023-04-18T09:34:17.951Z,10.56
2023-04-18T09:35:18.134Z,10.60
2023-04-18T09:36:18.309Z,10.74
2023-04-18T09:37:18.505Z,10.71
2023-04-18T09:38:18.747Z,10.67
2023-04-18T09:39:18.927Z,10.72
2023-04-18T09:40:19.104Z,10.48
2023-04-18T09:41:21.556Z,10.44
2023-04-18T09:42:19.446Z,10.33
2023-04-18T09:43:19.641Z,10.46
2023-04-18T09:44:20.095Z,10.48
2023-04-18T09:45:20.011Z,10.57
2023-04-18T09:46:20.245Z,10.64
2023-04-18T09:47:20.408Z,10.57
2023-04-18T09:48:20.576Z,10.59
2023-04-18T09:49:20.725Z,10.54
2023-04-18T09:50:20.935Z,10.46
2023-04-18T09:51:21.098Z,10.46
2023-04-18T09:52:21.288Z,10.53
2023-04-18T09:53:21.492Z,10.53
2023-04-18T09:54:21.711Z,10.60
2023-04-18T09:55:21.834Z,10.44
2023-04-18T09:56:22.027Z,10.31
2023-04-18T09:57:22.212Z,10.30
2023-04-18T09:58:22.424Z,10.34
2023-04-18T09:59:22.576Z,10.48
2023-04-18T10:00:22.780Z,10.46
2023-04-18T10:01:23.008Z,10.42
2023-04-18T10:02:23.258Z,10.28
2023-04-18T10:03:23.476Z,10.23
2023-04-18T10:04:23.529Z,10.34
2023-04-18T10:05:23.688Z,10.37
2023-04-18T10:06:23.838Z,10.16
2023-04-18T10:07:24.026Z,10.22
2023-04-18T10:08:24.267Z,10.19
2023-04-18T10:09:24.375Z,10.17
2023-04-18T10:10:24.582Z,10.30
2023-04-18T10:11:24.738Z,10.30
2023-04-18T10:12:24.953Z,10.35
2023-04-18T10:13:25.182Z,10.38
2023-04-18T10:14:26.397Z,10.26
2023-04-18T10:15:25.519Z,10.23
2023-04-18T10:16:25.717Z,10.17
2023-04-18T10:17:26.975Z,10.07
2023-04-18T10:18:26.122Z,10.12
2023-04-18T10:19:26.350Z,10.09
2023-04-18T10:20:26.432Z,10.10
2023-04-18T10:21:26.616Z,10.13
2023-04-18T10:22:26.804Z,10.23
2023-04-18T10:23:28.110Z,10.28
2023-04-18T10:24:27.186Z,10.19
2023-04-18T10:25:27.399Z,10.22
2023-04-18T10:26:27.578Z,10.34
2023-04-18T10:27:27.755Z,10.30
2023-04-18T10:28:27.967Z,10.30
2023-04-18T10:29:28.214Z,10.25
2023-04-18T10:30:28.312Z,10.26
2023-04-18T10:31:28.644Z,10.31
2023-04-18T10:32:28.702Z,10.31
2023-04-18T10:33:31.696Z,10.22
2023-04-18T10:34:29.011Z,10.20
2023-04-18T10:35:29.186Z,10.26
2023-04-18T10:36:29.381Z,10.25
2023-04-18T10:37:29.565Z,10.15
2023-04-18T10:38:29.789Z,10.23
2023-04-18T10:39:29.942Z,10.25
2023-04-18T10:40:30.121Z,10.28
2023-04-18T10:41:30.318Z,10.33
2023-04-18T10:42:30.499Z,10.26
2023-04-18T10:43:30.725Z,10.20
2023-04-18T10:44:30.894Z,10.22
2023-04-18T10:45:31.050Z,10.26
2023-04-18T10:46:32.870Z,10.35
2023-04-18T10:47:31.743Z,10.37
2023-04-18T10:48:31.608Z,10.42
2023-04-18T10:49:32.981Z,10.44
2023-04-18T10:50:31.994Z,10.44
2023-04-18T10:51:32.194Z,10.46
2023-04-18T10:52:32.416Z,10.51
2023-04-18T10:53:32.618Z,10.59
2023-04-18T10:54:32.750Z,10.61
2023-04-18T10:55:32.925Z,10.59
2023-04-18T10:56:33.140Z,10.71
2023-04-18T10:57:33.313Z,10.71
2023-04-18T10:58:33.523Z,10.54
2023-04-18T10:59:33.701Z,10.57
2023-04-18T11:00:33.977Z,10.75
2023-04-18T11:01:34.166Z,10.84
2023-04-18T11:02:34.341Z,10.75
2023-04-18T11:03:34.619Z,10.76
2023-04-18T11:04:35.555Z,10.71
2023-04-18T11:05:34.841Z,10.79
2023-04-18T11:06:35.060Z,10.71
2023-04-18T11:07:35.200Z,10.69
2023-04-18T11:08:35.413Z,10.68
2023-04-18T11:09:35.580Z,10.75
2023-04-18T11:10:35.786Z,10.81
2023-04-18T11:11:35.975Z,10.74
2023-04-18T11:12:36.296Z,10.69
2023-04-18T11:13:36.436Z,10.84
2023-04-18T11:14:36.479Z,10.93
2023-04-18T11:15:36.690Z,11.05
2023-04-18T11:16:36.932Z,11.04
2023-04-18T11:17:37.068Z,11.11
2023-04-18T11:18:37.257Z,11.17
2023-04-18T11:19:37.425Z,11.25
2023-04-18T11:20:37.599Z,11.18
2023-04-18T11:21:37.814Z,11.26
2023-04-18T11:22:37.965Z,11.11
2023-04-18T11:23:38.158Z,11.05
2023-04-18T11:24:38.335Z,11.08
2023-04-18T11:25:38.540Z,11.12
2023-04-18T11:26:38.733Z,11.23
2023-04-18T11:27:38.888Z,11.11
2023-04-18T11:28:39.109Z,11.14
2023-04-18T11:29:39.295Z,10.97
2023-04-18T11:30:39.516Z,11.08
2023-04-18T11:31:39.703Z,11.10
2023-04-18T11:32:39.904Z,11.05
2023-04-18T11:33:40.091Z,11.04
2023-04-18T11:34:40.277Z,10.99
2023-04-18T11:35:40.450Z,11.18
2023-04-18T11:36:40.648Z,11.22
2023-04-18T11:37:40.869Z,11.27
2023-04-18T11:38:41.025Z,11.40
2023-04-18T11:39:41.229Z,11.30
2023-04-18T11:40:41.403Z,11.22
2023-04-18T11:41:41.604Z,11.18
2023-04-18T11:42:41.841Z,11.35
2023-04-18T11:43:42.001Z,11.48
2023-04-18T11:44:42.191Z,11.54
2023-04-18T11:45:42.426Z,11.44
2023-04-18T11:46:42.591Z,11.44
2023-04-18T11:47:42.881Z,11.35
2023-04-18T11:48:43.003Z,11.40
2023-04-18T11:49:43.199Z,11.45
2023-04-18T11:50:43.384Z,11.50
2023-04-18T11:51:43.588Z,11.29
2023-04-18T11:52:43.759Z,11.40
2023-04-18T11:53:43.967Z,11.30
2023-04-18T11:54:44.175Z,11.11
2023-04-18T11:55:44.374Z,11.26
2023-04-18T11:56:44.588Z,11.48
2023-04-18T11:57:44.784Z,11.41
2023-04-18T11:58:44.981Z,11.44
2023-04-18T11:59:45.164Z,11.32
2023-04-18T12:00:45.362Z,11.37
2023-04-18T12:01:45.576Z,11.54
2023-04-18T12:02:45.841Z,11.55
2023-04-18T12:03:46.148Z,11.30
2023-04-18T12:04:46.341Z,11.12
2023-04-18T12:05:46.706Z,11.14
2023-04-18T12:06:46.552Z,11.07
2023-04-18T12:07:46.713Z,10.96
2023-04-18T12:08:46.880Z,11.15
2023-04-18T12:09:47.090Z,11.29
2023-04-18T12:10:47.285Z,11.47
2023-04-18T12:11:47.533Z,11.32
2023-04-18T12:12:47.700Z,11.41
2023-04-18T12:13:47.864Z,11.50
2023-04-18T12:14:48.082Z,11.50
2023-04-18T12:15:48.335Z,11.54
2023-04-18T12:16:48.504Z,11.73
2023-04-18T12:17:48.741Z,11.70
2023-04-18T12:18:48.857Z,11.62
2023-04-18T12:19:49.884Z,11.32
2023-04-18T12:20:49.286Z,11.26
2023-04-18T12:21:49.517Z,11.45
2023-04-18T12:22:49.695Z,11.75
2023-04-18T12:23:49.902Z,11.87
2023-04-18T12:24:50.117Z,12.04
2023-04-18T12:25:50.330Z,12.09
2023-04-18T12:26:50.576Z,12.13
2023-04-18T12:27:50.755Z,11.80
2023-04-18T12:28:50.954Z,11.72
2023-04-18T12:29:51.127Z,11.81
2023-04-18T12:30:51.338Z,11.97
2023-04-18T12:31:51.604Z,12.06
2023-04-18T12:32:51.781Z,12.06
2023-04-18T12:33:51.917Z,12.15
2023-04-18T12:34:52.136Z,12.13
2023-04-18T12:35:52.350Z,12.24
2023-04-18T12:36:52.574Z,12.22
2023-04-18T12:37:52.734Z,12.28
2023-04-18T12:38:52.961Z,12.37
2023-04-18T12:39:53.188Z,12.20
2023-04-18T12:40:53.358Z,12.00
2023-04-18T12:41:53.580Z,11.84
2023-04-18T12:42:53.786Z,12.04
2023-04-18T12:43:53.996Z,12.17
2023-04-18T12:44:54.207Z,11.68
2023-04-18T12:45:54.424Z,11.77
2023-04-18T12:46:54.700Z,11.66
2023-04-18T12:47:54.907Z,11.80
2023-04-18T12:48:55.063Z,11.94
2023-04-18T12:49:55.289Z,11.83
2023-04-18T12:50:55.516Z,12.04
2023-04-18T12:51:55.711Z,12.06
2023-04-18T12:52:55.881Z,11.91
2023-04-18T12:53:56.112Z,12.18
2023-04-18T12:54:56.312Z,12.03
2023-04-18T12:55:56.505Z,12.15
2023-04-18T12:56:56.738Z,12.17
2023-04-18T12:57:56.896Z,12.24
2023-04-18T12:58:57.115Z,12.09
2023-04-18T12:59:57.328Z,11.94
2023-04-18T13:00:57.556Z,11.91
2023-04-18T13:01:57.920Z,12.07
2023-04-18T13:02:58.125Z,12.18
2023-04-18T13:04:10.971Z,12.25
2023-04-18T13:04:58.453Z,12.12
2023-04-18T13:05:58.542Z,11.90
2023-04-18T13:06:58.762Z,11.97
2023-04-18T13:08:15.339Z,11.88
2023-04-18T13:08:59.174Z,12.06
2023-04-18T13:09:59.388Z,12.15
2023-04-18T13:10:59.600Z,11.84
2023-04-18T13:11:59.820Z,12.42
2023-04-18T13:13:00.021Z,12.90